メインページ
METAR-TAF:

METAR-TAF

空港 :

Jackson County Airport (Reynolds Field)

ジャクソン, ミシガン州, アメリカ合衆国

緯度: 42-15-35N, 経度: 084-27-34W, 海抜: 305m

現時点の気象観測

当レポートは29分前の19:56(UTC)に作成
南/南東の風 7kt
気温 0°C
湿度 64%
気圧 1028 hPa
視程: 16.1km
高度9000ftの千切れ雲あり
高度10000ftの曇り

METAR: KJXN 071956Z 16007KT 10SM BKN090 OVC100 00/M06 A3035 RMK AO2 SLP290 T00001061

時間: 15:25 (20:25 UTC)

予報

当レポートは2時間45分前の17:40(UTC)に作成
予報は07日の 18時(UTC)から 08日の 18時(UTC)まで有効
の風 8kt
視程: 10km
高度10000ftの曇り
08日の 1500時(UTC)から
南/南西の風 14kt
視程: 10km
高度3000ftの千切れ雲あり

TAF: KJXN 071740Z 0718/0818 18008KT P6SM OVC100 FM081500 20014KT P6SM BKN030

4,000以上の空港の気象観測と天気予報(METAR報とTAF報)

利用可能な観測所は地図上に黄色い丸と赤い丸で示す。

丸の上にカーソルを重ねると観測所名を参照できる。

次にクリックすると気象観測と天気予報を参照できる。

マップの切り替え:黒色「×」印の緑ボタンをクリックして拡大、「-」印の緑ボタンをクリックして縮小、緑色の三角印をクリックして隣りの地図に切り替え


METAR-TAF: